Terminal Aerodrome Forecast
Issued by NWS Albany, NY

Home | Current Version | Previous Version | Text Only | Print | Product List | Glossary On
Versions: 1 2 3 4 5 6 7 8 9 10 11 12 13 14 15 16
000
FTUS41 KALY 222340
TAFALB
TAF
KALB 222340Z 2300/2324 20006KT P6SM BKN080 OVC250
     FM230500 17006KT P6SM VCSH OVC080
     FM230900 18008KT 6SM BR VCSH OVC090
     FM231400 18011G20KT P6SM BKN060 PROB30 2314/2318 4SM -TSRA BR
      OVC040CB
     FM231800 19014G24KT P6SM VCSH OVC060=

USA.gov is the U.S. government's official web portal to all federal, state and local government web resources and services.